• Join FlightAware (Why Join?)
  • Login
  • US Flag 
12:50PM EDT


 

Airport Tracker/Info


-or-


 

Live Flight TrackerFlight Track Log ✈ EJA102 ✈ 26-Jun-2013 ✈ KEWB - KIAD

Flight Track Log - Related Links

Times and Time Zones

All times are in EDT time to prevent confusion due to time zone crossing. See the EJA102 flight status page for this flight to view local times or setup timezone preferences in your user account.

Time Position Orientation Groundspeed Altitude Reporting Facility
EDT Latitude Longitude Course Direction KTS MPH feet Rate Location/Type
09:17AM 41.6844 -70.9753 316° Northwest 154 177 700  Level Boston Center
09:17AM 41.7056 -71.0025 316° Northwest 176 203 2,000 2,340 Climbing Boston Center
09:18AM 41.7083 -71.0664 273° West 198 228 4,300 2,220 Climbing Boston Center
09:19AM 41.7139 -71.1636 274° West 236 272 6,500 2,220 Climbing Boston Center
09:20AM 41.7167 -71.2469 273° West 253 291 8,800 1,740 Climbing Boston Center
09:21AM 41.7219 -71.3497 274° West 253 291 10,000 900 Climbing Boston Center
09:22AM 41.7394 -71.4497 283° West 293 337 10,800 1,080 Climbing Boston Center
09:23AM 41.8072 -71.5767 306° West 316 364 12,500 1,500 Climbing Boston Center
09:24AM 41.8622 -71.6736 307° West 326 375 13,900 1,380 Climbing Boston Center
09:25AM 41.8733 -71.7906 277° West 319 367 15,300 1,320 Climbing Boston Center
09:26AM 41.8739 -71.8992 270° West 324 373 16,600 1,320 Climbing Boston Center
09:27AM 41.8828 -72.0219 276° West 331 381 18,000 1,380 Climbing Boston Center
09:28AM 41.8914 -72.1444 275° West 331 381 19,400 1,440 Climbing Boston Center
09:29AM 41.9000 -72.2644 276° West 331 381 20,900 1,440 Climbing Boston Center
09:30AM 41.9086 -72.3872 275° West 331 381 22,300 1,260 Climbing Boston Center
09:31AM 41.9169 -72.4958 276° West 331 381 23,500 1,260 Climbing Boston Center
09:32AM 41.9250 -72.6186 275° West 331 381 24,900 1,260 Climbing Boston Center
09:33AM 41.9353 -72.7556 276° West 331 381 26,100 1,080 Climbing Boston Center
09:34AM 41.9389 -72.8839 272° West 336 387 27,100 1,020 Climbing Boston Center
09:35AM 41.8861 -73.0172 242° Southwest 357 411 28,200 1,020 Climbing Boston Center
09:38AM 41.7458 -73.2403 230° Southwest 369 425 30,400 960 Climbing New York Center
09:39AM 41.6833 -73.3433 231° Southwest 369 425 31,400 780 Climbing New York Center
09:40AM 41.6272 -73.4356 231° Southwest 369 425 32,000 300 Climbing New York Center
09:41AM 41.5642 -73.5439 232° Southwest 369 425 32,000  Level New York Center
09:42AM 41.4950 -73.6600 232° Southwest 384 442 32,000  Level New York Center
09:43AM 41.4189 -73.7783 229° Southwest 403 464 32,000  Level New York Center
09:44AM 41.3453 -73.8967 230° Southwest 419 482 32,000  Level New York Center
09:45AM 41.2711 -74.0175 231° Southwest 426 490 32,000  Level New York Center
09:46AM 41.1969 -74.1406 231° Southwest 426 490 32,000  Level New York Center
09:47AM 41.1097 -74.2683 228° Southwest 432 497 32,000 -60 Level New York Center
09:48AM 41.0375 -74.3883 231° Southwest 432 497 31,900 -1,200 Descending New York Center
09:49AM 40.9608 -74.5053 229° Southwest 427 491 29,600 -1,980 Descending New York Center
09:50AM 40.8944 -74.6306 235° Southwest 422 486 28,000 -840 Descending New York Center
09:51AM 40.8439 -74.7675 244° Southwest 414 476 28,000  Level New York Center
09:52AM 40.7833 -74.8983 239° Southwest 430 495 28,000  Level New York Center
09:53AM 40.7200 -75.0342 238° Southwest 439 505 28,000  Level New York Center
09:54AM 40.6547 -75.1697 238° Southwest 439 505 28,000  Level New York Center
09:55AM 40.5908 -75.3106 239° Southwest 439 505 28,000  Level New York Center
09:56AM 40.5339 -75.4350 239° Southwest 439 505 28,000 -1,080 Level New York Center
09:57AM 40.4614 -75.5803 237° Southwest 439 505 25,900 -2,220 Descending New York Center
09:58AM 40.3997 -75.7122 238° Southwest 439 505 23,600 -2,220 Descending New York Center
09:59AM 40.3381 -75.8383 237° Southwest 429 494 21,500 -1,800 Descending New York Center
10:00AM 40.2764 -75.9619 237° Southwest 424 488 20,000 -1,260 Descending New York Center
10:01AM 40.2189 -76.0881 239° Southwest 413 475 19,100 -1,200 Descending New York Center
10:02AM 40.1639 -76.1978 237° Southwest 407 468 17,600 -1,260 Descending New York Center
10:04AM 40.0500 -76.4500 240° Southwest 373 429 15,100 -840 Descending Potomac TRACON
10:05AM 40.0000 -76.5667 241° Southwest 364 419 15,100  Level Potomac TRACON
10:06AM 39.9333 -76.6833 233° Southwest 363 418 15,100  Level Potomac TRACON
10:07AM 39.8833 -76.7833 237° Southwest 361 415 15,200  Climbing Potomac TRACON
10:08AM 39.8333 -76.9000 241° Southwest 363 418 15,100 -660 Descending Potomac TRACON
10:09AM 39.7833 -77.0167 241° Southwest 362 417 13,900 -1,260 Descending Potomac TRACON
10:10AM 39.7333 -77.1167 237° Southwest 357 411 12,600 -1,260 Descending Potomac TRACON
10:11AM 39.6833 -77.2333 241° Southwest 346 398 11,400 -1,200 Descending Potomac TRACON
10:12AM 39.6333 -77.3000 226° Southwest 307 353 10,200 -1,200 Descending Potomac TRACON
10:13AM 39.5500 -77.3167 189° South 270 311 9,100 -1,080 Descending Potomac TRACON
10:14AM 39.4833 -77.3500 201° Southwest 274 315 8,100 -1,140 Descending Potomac TRACON
10:15AM 39.4000 -77.3667 189° South 276 318 6,900 -1,200 Descending Potomac TRACON
10:16AM 39.3333 -77.3667 180° South 275 316 5,800 -1,080 Descending Potomac TRACON
10:17AM 39.2500 -77.3667 180° South 278 320 4,800 -900 Descending Potomac TRACON
10:18AM 39.1667 -77.3500 171° South 277 319 4,100 -420 Descending Potomac TRACON
10:19AM 39.1000 -77.3500 180° South 277 319 4,000 -60 Descending Potomac TRACON
10:20AM 39.0167 -77.3500 180° South 273 314 4,000  Level Potomac TRACON
10:21AM 38.9333 -77.3500 180° South 280 322 4,000 -480 Level Potomac TRACON
10:22AM 38.8667 -77.3667 191° South 261 300 3,100 -600 Descending Potomac TRACON
10:23AM 38.8000 -77.3833 191° South 260 299 2,800 -600 Descending Potomac TRACON
10:24AM 38.8333 -77.4333 311° West 218 251 2,000 -900 Descending Potomac TRACON
10:25AM 38.8833 -77.4333 360° North 167 192 1,100 -900 Descending Potomac TRACON
10:27AM 38.9333 -77.4500 349° North  Level FlightAware Approximate